Time;durP1;ratioP1;P1;durP2;ratioP2;P2;SDS_P1;SDS_P2;PMS_P1;PMS_P2;Temp;Humidity;BMP_temperature;BMP_pressure;BME280_temperature;BME280_humidity;BME280_pressure;Samples;Min_cycle;Max_cycle;Signal;HPM_P1;HPM_P2
2022/12/29 00:02:21;;;;;;;2.03;1.52;;;;;;;11.43;100.00;99897.38;5008836;28;20120;-65
2022/12/29 00:04:46;;;;;;;2.85;1.52;;;;;;;11.46;100.00;99881.38;4991061;28;20045;-65
2022/12/29 00:07:12;;;;;;;1.88;1.50;;;;;;;11.39;100.00;99888.78;5007536;28;20100;-68
2022/12/29 00:09:37;;;;;;;4.78;1.55;;;;;;;11.38;100.00;99874.75;5008706;28;20033;-66
2022/12/29 00:12:04;;;;;;;2.95;1.70;;;;;;;11.42;100.00;99866.66;5008093;28;20030;-63
2022/12/29 00:17:13;;;;;;;1.67;1.25;;;;;;;11.43;100.00;99853.41;5007442;28;20053;-66
2022/12/29 00:35:56;;;;;;;3.45;1.48;;;;;;;11.68;100.00;99830.94;5026687;28;20091;-69
2022/12/29 00:44:05;;;;;;;2.65;1.20;;;;;;;11.63;100.00;99825.94;5028053;28;20121;-62
2022/12/29 00:46:31;;;;;;;3.38;1.23;;;;;;;11.54;100.00;99838.78;5027547;28;20034;-67
2022/12/29 00:51:41;;;;;;;3.47;1.40;;;;;;;11.52;100.00;99823.03;5027090;28;20047;-66
2022/12/29 00:54:06;;;;;;;1.77;1.40;;;;;;;11.56;100.00;99824.56;5010061;28;20038;-64
2022/12/29 00:56:31;;;;;;;6.28;1.83;;;;;;;11.51;100.00;99831.88;5007762;28;20058;-63
2022/12/29 00:59:03;;;;;;;2.42;1.55;;;;;;;11.44;100.00;99822.59;4959789;28;20022;-64
2022/12/29 01:01:28;;;;;;;1.75;1.65;;;;;;;11.33;100.00;99825.81;5011612;28;20076;-67
2022/12/29 01:03:54;;;;;;;3.28;1.50;;;;;;;11.28;100.00;99818.13;5011721;28;20022;-68
2022/12/29 01:06:19;;;;;;;2.22;1.33;;;;;;;11.31;100.00;99825.03;5011978;28;20052;-60
2022/12/29 01:08:44;;;;;;;3.00;1.45;;;;;;;11.30;100.00;99818.06;5011544;28;20022;-66
2022/12/29 01:11:12;;;;;;;1.52;1.42;;;;;;;11.18;100.00;99819.56;5011391;28;20025;-67
2022/12/29 01:13:38;;;;;;;4.63;1.30;;;;;;;11.02;100.00;99837.97;5011585;28;20026;-67
2022/12/29 01:16:04;;;;;;;1.80;1.45;;;;;;;11.17;100.00;99828.41;5011497;28;20037;-66
2022/12/29 01:18:30;;;;;;;1.95;1.35;;;;;;;11.11;100.00;99848.88;5011321;28;20029;-67
2022/12/29 01:21:04;;;;;;;1.75;1.50;;;;;;;11.08;100.00;99835.03;5007813;28;20407;-64
2022/12/29 01:23:30;;;;;;;1.95;1.75;;;;;;;11.04;100.00;99842.22;5029733;28;20087;-60
2022/12/29 01:25:56;;;;;;;2.53;1.50;;;;;;;11.08;100.00;99838.50;5007836;28;20647;-69
2022/12/29 01:28:21;;;;;;;3.58;1.70;;;;;;;11.11;100.00;99840.97;5010884;28;20026;-68
2022/12/29 01:30:50;;;;;;;4.28;1.60;;;;;;;11.07;100.00;99838.56;5011318;28;20038;-68
2022/12/29 01:33:15;;;;;;;4.75;1.48;;;;;;;11.10;100.00;99849.81;5011127;28;20033;-65
2022/12/29 01:35:41;;;;;;;2.60;1.45;;;;;;;11.10;100.00;99839.28;5010930;28;20022;-68
2022/12/29 01:38:07;;;;;;;4.07;1.40;;;;;;;11.17;100.00;99823.97;5009964;28;20030;-69
2022/12/29 01:40:33;;;;;;;4.55;1.67;;;;;;;11.21;100.00;99835.22;5010526;28;20045;-67
2022/12/29 01:42:58;;;;;;;3.95;1.30;;;;;;;11.15;100.00;99846.09;5010514;28;20026;-68
2022/12/29 01:45:23;;;;;;;3.58;1.30;;;;;;;11.15;100.00;99825.00;5008410;28;20508;-68
2022/12/29 01:47:53;;;;;;;4.13;1.20;;;;;;;11.15;100.00;99832.91;5010202;28;20052;-67
2022/12/29 01:50:39;;;;;;;2.80;1.25;;;;;;;11.06;100.00;99814.00;4976307;28;20037;-65
2022/12/29 01:53:09;;;;;;;3.63;1.35;;;;;;;11.11;100.00;99829.59;5003500;28;20461;-65
2022/12/29 01:55:39;;;;;;;4.78;1.55;;;;;;;10.99;100.00;99829.28;4982204;28;20076;-65
2022/12/29 01:58:05;;;;;;;4.45;1.50;;;;;;;10.99;100.00;99828.44;4992607;28;20709;-67
2022/12/29 02:00:31;;;;;;;3.53;1.40;;;;;;;10.90;100.00;99836.81;4992806;28;20022;-68
2022/12/29 02:02:56;;;;;;;3.15;1.25;;;;;;;10.91;100.00;99833.25;5022174;28;20073;-70
2022/12/29 02:06:06;;;;;;;3.00;1.42;;;;;;;10.99;100.00;99846.91;5011823;28;20055;-70
2022/12/29 02:08:32;;;;;;;6.78;1.27;;;;;;;11.01;100.00;99858.19;5004676;28;20398;-69
2022/12/29 02:10:59;;;;;;;9.23;1.30;;;;;;;11.09;100.00;99868.34;5013618;28;20032;-69
2022/12/29 02:13:27;;;;;;;5.35;1.13;;;;;;;11.06;100.00;99850.94;5018317;28;20467;-59
2022/12/29 02:16:16;;;;;;;12.25;1.63;;;;;;;11.22;100.00;99850.09;5009772;28;20098;-70
2022/12/29 02:19:01;;;;;;;4.07;1.27;;;;;;;11.11;100.00;99851.53;5007207;28;20177;-67
2022/12/29 02:21:45;;;;;;;7.75;1.10;;;;;;;11.26;100.00;99835.84;4997785;28;20069;-68
2022/12/29 02:24:44;;;;;;;6.15;1.30;;;;;;;11.29;100.00;99827.75;5011082;28;20037;-61
2022/12/29 02:27:11;;;;;;;;;;;;;;;11.33;100.00;99833.72;5009793;28;20487;-66
2022/12/29 02:29:52;;;;;;;5.53;1.20;;;;;;;11.22;100.00;99832.50;5010283;28;19901;-60
2022/12/29 02:32:31;;;;;;;12.52;1.40;;;;;;;11.23;100.00;99831.56;5004616;28;20022;-68
2022/12/29 02:34:56;;;;;;;;;;;;;;;11.23;100.00;99828.09;4991615;28;20037;-66
2022/12/29 02:37:24;;;;;;;11.17;1.23;;;;;;;11.31;100.00;99831.16;5015019;28;19913;-67
2022/12/29 02:39:55;;;;;;;11.05;1.42;;;;;;;11.25;100.00;99840.25;5015343;28;21177;-67
2022/12/29 02:42:26;;;;;;;9.60;1.58;;;;;;;11.32;100.00;99842.56;5011312;28;20167;-56
2022/12/29 02:45:07;;;;;;;4.68;1.10;;;;;;;11.24;100.00;99829.78;4994038;28;20067;-64
2022/12/29 02:48:05;;;;;;;7.57;1.42;;;;;;;11.25;100.00;99831.50;5009377;28;20065;-65
2022/12/29 02:50:35;;;;;;;4.88;1.10;;;;;;;11.23;100.00;99830.72;5004856;28;20442;-67
2022/12/29 02:53:04;;;;;;;12.48;2.35;;;;;;;11.27;100.00;99837.53;4990708;28;20103;-66
2022/12/29 02:55:30;;;;;;;6.13;1.30;;;;;;;11.07;100.00;99852.63;4991847;28;20159;-65
2022/12/29 02:58:16;;;;;;;10.07;1.77;;;;;;;11.16;100.00;99826.69;5018690;28;20116;-63
2022/12/29 03:00:52;;;;;;;11.90;1.67;;;;;;;11.08;100.00;99835.84;5009101;28;20030;-67
2022/12/29 03:03:27;;;;;;;9.70;1.75;;;;;;;11.08;100.00;99833.22;4992369;28;20041;-60
2022/12/29 03:06:11;;;;;;;8.93;1.58;;;;;;;10.98;100.00;99832.00;5009255;28;20046;-64
2022/12/29 03:08:54;;;;;;;9.55;1.77;;;;;;;11.12;100.00;99826.88;5017571;28;20076;-60
2022/12/29 03:17:24;;;;;;;9.23;2.22;;;;;;;11.23;100.00;99839.47;4991991;28;20041;-67
2022/12/29 03:19:51;;;;;;;7.57;1.50;;;;;;;11.10;100.00;99828.72;4983319;28;20055;-65
2022/12/29 03:22:27;;;;;;;12.65;2.30;;;;;;;11.08;100.00;99814.78;4999145;28;20273;-64
2022/12/29 03:24:59;;;;;;;6.53;1.73;;;;;;;11.14;100.00;99818.03;4988078;28;20112;-67
2022/12/29 03:27:35;;;;;;;9.98;1.48;;;;;;;11.09;100.00;99813.00;5005396;28;20021;-62
2022/12/29 03:30:03;;;;;;;14.52;1.75;;;;;;;11.02;100.00;99804.56;4993846;28;20109;-66
2022/12/29 03:32:42;;;;;;;9.38;1.17;;;;;;;10.89;100.00;99821.97;5008751;28;20026;-64
2022/12/29 03:35:08;;;;;;;;;;;;;;;11.00;100.00;99814.34;4995587;28;20057;-56
2022/12/29 03:37:43;;;;;;;9.45;2.15;;;;;;;10.98;100.00;99809.13;4996866;28;19960;-63
2022/12/29 03:40:09;;;;;;;5.75;1.30;;;;;;;10.90;100.00;99810.47;4989888;28;20018;-66
2022/12/29 03:42:36;;;;;;;14.73;2.28;;;;;;;10.89;100.00;99821.97;4990890;28;20037;-60
2022/12/29 03:45:01;;;;;;;7.88;1.58;;;;;;;10.93;100.00;99811.16;4990573;28;20022;-60
2022/12/29 03:47:26;;;;;;;9.23;1.77;;;;;;;10.92;100.00;99817.38;5008391;28;20057;-65
2022/12/29 03:49:52;;;;;;;4.68;1.25;;;;;;;10.90;100.00;99813.09;4990854;28;20037;-65
2022/12/29 03:52:18;;;;;;;5.95;1.40;;;;;;;10.87;100.00;99822.88;5007943;28;20026;-59
2022/12/29 03:54:43;;;;;;;3.72;0.93;;;;;;;10.81;100.00;99823.19;5007938;28;20456;-64
2022/12/29 03:57:10;;;;;;;7.13;1.63;;;;;;;10.74;100.00;99825.28;5007891;28;20026;-65
2022/12/29 03:59:36;;;;;;;8.32;2.03;;;;;;;10.75;100.00;99818.25;5008422;28;20033;-65
2022/12/29 04:02:01;;;;;;;14.60;2.00;;;;;;;10.77;100.00;99826.06;5007696;28;20030;-65
2022/12/29 04:04:26;;;;;;;8.10;1.80;;;;;;;10.68;100.00;99830.88;5018190;28;20029;-57
2022/12/29 04:06:52;;;;;;;10.18;1.60;;;;;;;10.74;100.00;99837.59;5006967;28;20074;-64
2022/12/29 04:09:17;;;;;;;7.93;1.50;;;;;;;10.68;100.00;99819.47;5008106;28;20034;-67
2022/12/29 04:11:42;;;;;;;7.30;1.83;;;;;;;10.58;100.00;99833.13;5007988;28;20112;-62
2022/12/29 04:14:08;;;;;;;8.02;1.77;;;;;;;10.62;100.00;99849.59;5008156;28;20014;-61
2022/12/29 04:16:35;;;;;;;14.50;2.33;;;;;;;10.74;100.00;99837.59;4990540;28;20022;-66
2022/12/29 04:19:01;;;;;;;10.15;2.03;;;;;;;10.76;100.00;99848.94;5007658;28;20044;-63
2022/12/29 04:21:27;;;;;;;8.88;1.90;;;;;;;10.83;100.00;99841.53;5007853;28;20507;-64
2022/12/29 04:23:52;;;;;;;9.50;2.20;;;;;;;10.73;100.00;99846.44;5017151;28;20101;-66
2022/12/29 04:26:17;;;;;;;10.27;1.73;;;;;;;10.74;100.00;99846.38;5023552;28;20061;-62
2022/12/29 04:28:43;;;;;;;14.40;2.20;;;;;;;10.78;100.00;99847.06;5004774;28;20026;-64
2022/12/29 04:31:08;;;;;;;9.00;2.00;;;;;;;10.67;100.00;99839.72;5019550;28;20036;-65
2022/12/29 04:33:34;;;;;;;15.95;2.53;;;;;;;10.66;100.00;99829.25;5009289;28;20049;-62
2022/12/29 04:35:59;;;;;;;13.75;2.40;;;;;;;10.64;100.00;99841.63;5022711;28;20087;-63
2022/12/29 04:38:25;;;;;;;11.30;1.90;;;;;;;10.61;100.00;99864.59;5011776;28;20029;-63
2022/12/29 04:40:50;;;;;;;15.13;2.10;;;;;;;10.68;100.00;99851.06;5012198;28;20444;-61
2022/12/29 04:43:18;;;;;;;7.60;2.17;;;;;;;10.60;100.00;99851.47;4994479;28;20021;-60
2022/12/29 04:45:44;;;;;;;12.27;1.80;;;;;;;10.55;100.00;99854.34;5011499;28;20045;-63
2022/12/29 04:48:10;;;;;;;11.77;1.95;;;;;;;10.59;100.00;99850.63;5015545;28;20037;-57
2022/12/29 04:50:35;;;;;;;8.23;1.98;;;;;;;10.57;100.00;99841.94;4993746;28;20560;-65
2022/12/29 04:53:01;;;;;;;10.02;1.80;;;;;;;10.54;100.00;99852.63;5010239;28;20030;-65
2022/12/29 04:55:26;;;;;;;14.07;2.40;;;;;;;10.41;100.00;99867.31;5011543;28;20127;-63
2022/12/29 04:57:52;;;;;;;11.10;2.17;;;;;;;10.54;100.00;99857.88;4996735;28;20117;-59
2022/12/29 05:00:17;;;;;;;15.38;2.45;;;;;;;10.36;100.00;99863.09;5017326;28;20087;-64
2022/12/29 05:02:43;;;;;;;10.25;2.15;;;;;;;10.43;100.00;99875.97;5011428;28;20049;-62
2022/12/29 05:05:08;;;;;;;10.75;2.42;;;;;;;10.31;100.00;99874.78;5017988;28;20419;-57
2022/12/29 05:07:34;;;;;;;13.23;2.45;;;;;;;10.28;100.00;99870.53;5010533;28;20396;-64
2022/12/29 05:09:59;;;;;;;11.73;2.17;;;;;;;10.26;100.00;99868.91;5011702;28;20101;-63
2022/12/29 05:12:25;;;;;;;14.57;2.10;;;;;;;10.19;100.00;99871.84;5012651;28;20053;-62
2022/12/29 05:14:50;;;;;;;16.30;2.72;;;;;;;10.08;100.00;99888.13;5021665;28;20030;-60
2022/12/29 05:17:15;;;;;;;16.30;2.40;;;;;;;10.05;100.00;99872.47;5015314;28;20497;-64
2022/12/29 05:19:41;;;;;;;14.45;2.75;;;;;;;10.04;100.00;99875.19;5011788;28;20022;-66
2022/12/29 05:22:06;;;;;;;16.35;2.58;;;;;;;10.03;100.00;99884.88;5024603;28;20045;-64
2022/12/29 05:24:31;;;;;;;12.45;2.60;;;;;;;10.01;100.00;99883.22;5010951;28;20026;-55
2022/12/29 05:26:57;;;;;;;24.42;3.05;;;;;;;10.01;100.00;99897.25;5017818;28;20030;-64
2022/12/29 05:29:22;;;;;;;21.58;2.53;;;;;;;9.92;100.00;99890.63;5011532;28;20026;-65
2022/12/29 05:31:47;;;;;;;12.88;2.25;;;;;;;9.92;100.00;99868.72;5020445;28;20439;-64
2022/12/29 05:34:13;;;;;;;14.30;2.22;;;;;;;9.80;100.00;99878.91;5010743;28;20357;-64
2022/12/29 05:36:39;;;;;;;23.70;2.70;;;;;;;9.73;100.00;99872.22;5014659;28;20423;-65
2022/12/29 05:39:05;;;;;;;18.45;2.92;;;;;;;9.86;100.00;99885.66;5018542;28;20021;-64
2022/12/29 05:41:30;;;;;;;18.95;3.00;;;;;;;9.88;100.00;99878.56;5018757;28;20025;-63
2022/12/29 05:43:55;;;;;;;16.58;2.55;;;;;;;9.95;100.00;99881.75;4988159;28;20061;-66
2022/12/29 05:46:21;;;;;;;13.85;2.78;;;;;;;9.89;100.00;99867.09;5002181;28;20038;-61
2022/12/29 05:48:46;;;;;;;12.05;2.20;;;;;;;9.94;100.00;99890.56;5017934;28;20033;-63
2022/12/29 05:51:11;;;;;;;18.52;2.50;;;;;;;9.95;100.00;99884.38;4992057;28;20026;-66
2022/12/29 05:53:37;;;;;;;23.77;3.35;;;;;;;10.04;100.00;99896.25;5008865;28;20532;-66
2022/12/29 05:56:02;;;;;;;15.07;2.72;;;;;;;10.03;100.00;99900.66;5009757;28;20030;-67
2022/12/29 05:58:27;;;;;;;11.45;2.38;;;;;;;10.00;100.00;99927.13;5008762;28;20026;-61
2022/12/29 06:00:53;;;;;;;19.27;3.20;;;;;;;10.04;100.00;99910.25;5003201;28;20038;-64
2022/12/29 06:03:18;;;;;;;24.48;2.95;;;;;;;9.90;100.00;99925.84;4989185;28;20664;-64
2022/12/29 06:05:47;;;;;;;19.75;2.50;;;;;;;9.82;100.00;99924.38;4988286;28;20061;-63
2022/12/29 06:08:13;;;;;;;21.85;2.78;;;;;;;9.79;100.00;99924.56;4990581;28;20026;-64
2022/12/29 06:10:38;;;;;;;25.42;3.30;;;;;;;9.70;100.00;99917.91;4990845;28;20492;-63
2022/12/29 06:13:05;;;;;;;22.30;3.17;;;;;;;9.56;100.00;99930.84;4990424;28;20042;-64
2022/12/29 06:15:33;;;;;;;17.92;3.17;;;;;;;9.52;100.00;99909.09;5008168;28;20030;-66
2022/12/29 06:17:59;;;;;;;13.65;2.50;;;;;;;9.52;100.00;99930.13;4992002;28;20168;-67
2022/12/29 06:20:24;;;;;;;16.85;2.63;;;;;;;9.57;100.00;99920.25;5009729;28;20113;-66
2022/12/29 06:22:49;;;;;;;19.45;3.10;;;;;;;9.51;100.00;99920.50;5009632;28;20034;-67
2022/12/29 06:25:15;;;;;;;17.30;2.65;;;;;;;9.42;100.00;99903.38;5004379;28;20033;-66
2022/12/29 06:27:41;;;;;;;18.70;3.90;;;;;;;9.41;100.00;99914.81;4990636;28;20045;-64
2022/12/29 06:30:07;;;;;;;15.30;2.72;;;;;;;9.54;100.00;99909.88;4989147;28;20030;-69
2022/12/29 06:32:33;;;;;;;25.13;2.95;;;;;;;9.50;100.00;99918.81;5006607;28;20041;-67
2022/12/29 06:34:59;;;;;;;20.98;4.47;;;;;;;9.50;100.00;99910.06;5009593;28;20038;-66
2022/12/29 06:37:24;;;;;;;20.73;2.72;;;;;;;9.45;100.00;99916.38;5009324;28;20034;-66
2022/12/29 06:39:50;;;;;;;20.73;2.60;;;;;;;9.52;100.00;99911.72;5010172;28;20030;-66
2022/12/29 06:42:15;;;;;;;20.45;3.05;;;;;;;9.51;100.00;99917.88;5009337;28;20030;-64
2022/12/29 06:44:40;;;;;;;21.40;3.05;;;;;;;9.59;100.00;99907.91;5009469;28;20021;-62
2022/12/29 06:47:06;;;;;;;23.35;2.78;;;;;;;9.48;100.00;99912.75;5008881;28;20141;-66
2022/12/29 06:49:31;;;;;;;24.08;3.95;;;;;;;9.54;100.00;99912.50;5008373;28;20021;-65
2022/12/29 06:51:58;;;;;;;15.25;2.72;;;;;;;9.60;100.00;99920.13;5008310;28;20030;-66
2022/12/29 06:54:23;;;;;;;16.25;3.05;;;;;;;9.60;100.00;99911.34;5006527;28;20480;-66
2022/12/29 06:56:48;;;;;;;17.85;2.45;;;;;;;9.59;100.00;99922.81;5009558;28;20030;-67
2022/12/29 06:59:14;;;;;;;17.08;3.00;;;;;;;9.55;100.00;99911.59;5010306;28;20444;-68
2022/12/29 07:01:39;;;;;;;15.07;2.47;;;;;;;9.58;100.00;99923.75;5009614;28;20778;-62
2022/12/29 07:04:05;;;;;;;20.02;2.63;;;;;;;9.58;100.00;99910.59;4991052;28;20028;-66
2022/12/29 07:06:30;;;;;;;10.25;2.25;;;;;;;9.54;100.00;99935.31;5008184;28;20512;-70
2022/12/29 07:08:57;;;;;;;12.40;1.80;;;;;;;9.55;100.00;99922.09;5008968;28;20068;-67
2022/12/29 07:11:22;;;;;;;16.95;2.25;;;;;;;9.55;100.00;99935.25;5008875;28;20021;-71
2022/12/29 07:13:48;;;;;;;9.98;1.95;;;;;;;9.56;100.00;99926.44;5009082;28;20033;-68
2022/12/29 07:16:13;;;;;;;14.32;2.40;;;;;;;9.71;100.00;99934.56;5007849;28;20034;-66
2022/12/29 07:18:38;;;;;;;12.57;2.67;;;;;;;9.75;100.00;99938.75;4990404;28;20026;-65
2022/12/29 07:21:04;;;;;;;10.10;2.10;;;;;;;9.58;100.00;99950.88;5007232;28;20053;-66
2022/12/29 07:23:29;;;;;;;11.82;1.88;;;;;;;9.57;100.00;99945.72;4990911;28;20018;-67
2022/12/29 07:26:03;;;;;;;13.80;2.83;;;;;;;9.50;100.00;99945.13;5008113;28;20021;-64
2022/12/29 07:28:28;;;;;;;15.23;2.75;;;;;;;9.46;100.00;99960.16;5006754;28;20050;-67
2022/12/29 07:30:54;;;;;;;15.32;2.58;;;;;;;9.57;100.00;99951.81;5008395;28;20056;-65
2022/12/29 07:33:19;;;;;;;25.98;3.65;;;;;;;9.60;100.00;99951.66;5008574;28;20097;-69
2022/12/29 07:35:45;;;;;;;15.77;2.60;;;;;;;9.66;100.00;99936.56;4989861;28;20109;-64
2022/12/29 07:38:10;;;;;;;24.85;3.55;;;;;;;9.79;100.00;99937.72;5008116;28;20052;-60
2022/12/29 07:40:36;;;;;;;22.23;3.22;;;;;;;9.81;100.00;99941.09;5008291;28;20388;-65
2022/12/29 07:43:01;;;;;;;12.05;2.60;;;;;;;9.80;100.00;99931.53;5006659;28;20060;-66
2022/12/29 07:45:26;;;;;;;14.02;2.55;;;;;;;9.83;100.00;99928.75;4999600;28;20476;-67
2022/12/29 07:47:52;;;;;;;22.17;3.13;;;;;;;9.90;100.00;99944.25;5007086;28;20026;-61
2022/12/29 07:50:17;;;;;;;18.55;3.35;;;;;;;9.84;100.00;99948.88;5007817;28;20049;-58
2022/12/29 07:52:43;;;;;;;13.73;2.90;;;;;;;9.96;100.00;99933.44;5007764;28;20037;-66
2022/12/29 07:55:08;;;;;;;19.67;2.72;;;;;;;9.93;100.00;99942.34;5007483;28;20022;-64
2022/12/29 07:57:34;;;;;;;21.50;2.88;;;;;;;10.02;100.00;99929.69;5007521;28;20472;-64
2022/12/29 07:59:59;;;;;;;17.73;2.40;;;;;;;10.03;100.00;99931.38;5007531;28;20025;-66
2022/12/29 08:02:26;;;;;;;23.83;2.45;;;;;;;10.11;100.00;99939.78;5007048;28;20026;-64
2022/12/29 08:04:51;;;;;;;19.23;2.70;;;;;;;10.00;100.00;99942.91;5006797;28;20052;-62
2022/12/29 08:07:16;;;;;;;17.58;3.22;;;;;;;10.15;100.00;99920.31;5006065;28;20674;-63
2022/12/29 08:09:42;;;;;;;15.15;2.60;;;;;;;10.05;100.00;99935.66;4988740;28;20030;-63
2022/12/29 08:12:09;;;;;;;20.08;3.20;;;;;;;10.03;100.00;99927.00;5007627;28;20033;-61
2022/12/29 08:14:35;;;;;;;19.33;2.58;;;;;;;10.03;100.00;99937.53;5006576;28;20081;-63
2022/12/29 08:17:00;;;;;;;18.63;2.92;;;;;;;9.91;100.00;99951.22;4972293;28;20070;-63
2022/12/29 08:19:25;;;;;;;13.05;2.97;;;;;;;9.93;100.00;99949.41;5005513;28;20033;-62
2022/12/29 08:21:52;;;;;;;21.15;2.90;;;;;;;9.89;100.00;99946.03;5003897;28;20473;-63
2022/12/29 08:24:17;;;;;;;19.90;3.30;;;;;;;9.80;100.00;99949.94;5005601;28;20038;-62
2022/12/29 08:26:43;;;;;;;15.80;2.33;;;;;;;9.80;100.00;99926.25;5006451;28;20021;-62
2022/12/29 08:29:08;;;;;;;20.67;3.15;;;;;;;9.65;100.00;99945.34;5005998;28;20074;-57
2022/12/29 08:31:34;;;;;;;18.77;2.88;;;;;;;9.63;100.00;99950.69;5005015;28;20026;-63
2022/12/29 08:33:59;;;;;;;18.50;3.10;;;;;;;9.71;100.00;99950.34;5005501;28;20013;-64
2022/12/29 08:36:25;;;;;;;17.52;2.63;;;;;;;9.55;100.00;99989.63;5005323;28;20052;-65
2022/12/29 08:38:50;;;;;;;20.58;3.20;;;;;;;9.61;100.00;99976.22;5005407;28;20392;-59
2022/12/29 08:41:16;;;;;;;15.13;2.88;;;;;;;9.64;100.00;99951.53;5006514;28;20018;-64
2022/12/29 08:43:41;;;;;;;21.85;4.00;;;;;;;9.57;100.00;99941.28;5005161;28;20030;-62
2022/12/29 08:46:06;;;;;;;18.35;2.83;;;;;;;9.71;100.00;99967.00;4988499;28;20077;-62
2022/12/29 08:48:32;;;;;;;16.52;3.10;;;;;;;9.75;100.00;99964.22;5006429;28;20252;-60
2022/12/29 08:50:57;;;;;;;20.15;3.25;;;;;;;9.60;100.00;100004.28;5006305;28;20065;-63
2022/12/29 08:53:23;;;;;;;26.17;3.15;;;;;;;9.44;100.00;99985.69;5006205;28;20021;-61
2022/12/29 08:55:55;;;;;;;24.10;3.35;;;;;;;9.44;100.00;99988.31;4989708;28;20026;-59
2022/12/29 08:58:21;;;;;;;19.65;2.80;;;;;;;9.30;100.00;99991.50;5002586;28;20065;-60
2022/12/29 09:00:46;;;;;;;16.45;2.80;;;;;;;9.28;100.00;100003.03;5005443;28;20050;-66
2022/12/29 09:03:11;;;;;;;24.42;3.28;;;;;;;9.28;100.00;100024.06;5006250;28;20034;-66
2022/12/29 09:05:37;;;;;;;25.17;3.42;;;;;;;9.06;100.00;100025.78;5004155;28;20054;-65
2022/12/29 09:08:03;;;;;;;22.90;2.80;;;;;;;9.09;100.00;100033.56;5005660;28;20058;-65
2022/12/29 09:10:28;;;;;;;21.50;3.45;;;;;;;9.09;100.00;100030.06;5005405;28;20029;-65
2022/12/29 09:12:53;;;;;;;17.75;3.40;;;;;;;9.19;100.00;100031.41;5005495;28;20061;-66
2022/12/29 09:15:19;;;;;;;18.55;2.50;;;;;;;9.34;100.00;100035.16;5005185;28;20034;-65
2022/12/29 09:17:45;;;;;;;20.23;2.63;;;;;;;9.26;100.00;100074.06;5004214;28;20096;-64
2022/12/29 09:20:12;;;;;;;17.80;2.45;;;;;;;9.35;100.00;100055.28;5004888;28;20048;-66
2022/12/29 09:22:37;;;;;;;21.10;3.50;;;;;;;9.27;100.00;100060.00;5008715;28;20026;-65
2022/12/29 09:25:03;;;;;;;10.63;2.60;;;;;;;9.29;100.00;100050.28;4991586;28;20144;-66
2022/12/29 09:27:29;;;;;;;19.27;3.30;;;;;;;9.22;100.00;100064.59;5009201;28;20018;-67
2022/12/29 09:29:55;;;;;;;19.27;3.22;;;;;;;9.26;100.00;100076.69;5008366;28;20080;-69
2022/12/29 09:32:20;;;;;;;14.60;2.80;;;;;;;9.25;100.00;100056.59;5004504;28;20022;-62
2022/12/29 09:34:46;;;;;;;18.33;3.60;;;;;;;9.22;100.00;100089.09;5007674;28;20472;-59
2022/12/29 09:37:11;;;;;;;16.05;3.30;;;;;;;9.24;100.00;100075.88;5005499;28;20472;-65
2022/12/29 09:39:36;;;;;;;18.48;3.20;;;;;;;9.28;100.00;100088.00;5000676;28;20044;-65
2022/12/29 09:42:06;;;;;;;25.02;3.35;;;;;;;9.30;100.00;100091.41;4985283;28;20016;-67
2022/12/29 09:45:06;;;;;;;17.95;3.45;;;;;;;9.40;100.00;100091.06;4988545;28;20034;-66
2022/12/29 09:47:32;;;;;;;18.10;3.40;;;;;;;9.51;100.00;100103.78;5007319;28;20026;-66
2022/12/29 09:50:10;;;;;;;25.60;3.53;;;;;;;9.55;100.00;100098.31;5007886;28;20116;-69
2022/12/29 09:52:39;;;;;;;17.52;3.10;;;;;;;9.67;100.00;100099.59;4987055;28;20021;-65
2022/12/29 09:55:10;;;;;;;21.30;3.53;;;;;;;9.61;100.00;100115.63;4985380;28;20017;-65
2022/12/29 09:57:42;;;;;;;25.50;3.38;;;;;;;9.69;100.00;100121.41;5002203;28;20030;-69
2022/12/29 10:00:14;;;;;;;19.08;4.10;;;;;;;9.81;100.00;100127.09;4986655;28;20029;-69
2022/12/29 10:02:43;;;;;;;26.80;3.38;;;;;;;9.93;100.00;100130.97;5007854;28;20113;-68
2022/12/29 10:05:18;;;;;;;;;;;;;;;10.00;100.00;100132.41;5007091;28;20014;-62
2022/12/29 10:07:57;;;;;;;20.58;3.20;;;;;;;9.94;100.00;100135.31;5004074;28;19933;-69
2022/12/29 10:10:37;;;;;;;26.10;3.78;;;;;;;9.91;100.00;100140.69;4987679;28;20018;-68
2022/12/29 10:13:43;;;;;;;23.55;3.60;;;;;;;10.05;100.00;100156.75;4990325;28;20030;-64
2022/12/29 10:16:36;;;;;;;28.05;4.55;;;;;;;10.13;100.00;100152.94;4990440;28;20080;-62
2022/12/29 10:19:29;;;;;;;33.97;4.70;;;;;;;10.09;100.00;100158.31;4990241;28;20120;-67
2022/12/29 10:22:07;;;;;;;26.67;4.28;;;;;;;10.21;100.00;100156.09;5008206;28;20057;-62
2022/12/29 10:24:34;;;;;;;27.73;5.17;;;;;;;10.19;100.00;100176.34;5010046;28;20045;-68
2022/12/29 10:27:00;;;;;;;30.65;6.03;;;;;;;10.17;100.00;100172.97;5001764;28;20451;-68
2022/12/29 10:29:38;;;;;;;29.80;4.90;;;;;;;10.16;100.00;100184.38;5029872;28;20112;-68
2022/12/29 10:32:17;;;;;;;29.10;4.95;;;;;;;10.21;100.00;100192.97;5010300;28;20029;-61
2022/12/29 10:34:46;;;;;;;29.92;4.70;;;;;;;10.26;100.00;100201.50;4995708;28;20029;-68
2022/12/29 10:37:17;;;;;;;;;;;;;;;10.28;100.00;100202.31;5009665;28;20521;-66
2022/12/29 10:39:50;;;;;;;38.08;5.43;;;;;;;10.30;100.00;100212.78;5010438;28;19992;-68
2022/12/29 10:42:27;;;;;;;26.27;4.40;;;;;;;10.35;100.00;100202.88;4991572;28;20024;-67
2022/12/29 10:44:54;;;;;;;36.55;5.05;;;;;;;10.34;100.00;100214.34;5008897;28;20034;-67
2022/12/29 10:47:23;;;;;;;27.60;4.47;;;;;;;10.42;100.00;100232.47;4975331;28;20457;-63
2022/12/29 10:49:48;;;;;;;;;;;;;;;10.46;100.00;100223.53;4991629;28;20050;-61
2022/12/29 10:52:16;;;;;;;26.30;3.90;;;;;;;10.55;100.00;100212.59;5007754;28;19952;-64
2022/12/29 10:54:49;;;;;;;36.05;5.07;;;;;;;10.69;100.00;100204.06;4991567;28;20030;-69
2022/12/29 10:57:28;;;;;;;28.08;4.75;;;;;;;10.97;100.00;100223.06;4991894;28;20029;-69
2022/12/29 10:59:54;;;;;;;;;;;;;;;10.98;100.00;100230.03;4991691;28;20037;-66
2022/12/29 11:02:42;;;;;;;25.90;4.13;;;;;;;11.04;100.00;100240.31;5009785;28;19913;-66
2022/12/29 11:05:15;;;;;;;31.77;4.82;;;;;;;11.02;100.00;100236.03;4990750;28;20096;-66
2022/12/29 11:07:40;;;;;;;28.52;4.82;;;;;;;11.04;100.00;100248.22;4991487;28;20085;-68
2022/12/29 11:10:19;;;;;;;27.23;4.80;;;;;;;11.11;100.00;100252.28;4991665;28;20053;-65
2022/12/29 11:13:02;;;;;;;30.23;4.82;;;;;;;11.15;100.00;100250.38;5008261;28;20018;-60
2022/12/29 11:15:38;;;;;;;36.72;5.05;;;;;;;11.35;100.00;100265.25;5009028;28;20026;-63
2022/12/29 11:18:03;;;;;;;18.98;4.47;;;;;;;11.48;100.00;100259.41;4990853;28;20456;-63
2022/12/29 11:20:29;;;;;;;29.95;4.55;;;;;;;11.57;100.00;100272.19;5007610;28;20034;-62
2022/12/29 11:22:54;;;;;;;27.83;4.68;;;;;;;11.45;100.00;100270.97;5008527;28;20029;-62
2022/12/29 11:25:20;;;;;;;25.25;4.10;;;;;;;11.39;100.00;100273.91;5009120;28;20431;-65
2022/12/29 11:27:59;;;;;;;23.85;4.65;;;;;;;11.09;100.00;100262.06;4991314;28;20030;-64
2022/12/29 11:30:31;;;;;;;18.67;3.63;;;;;;;10.95;100.00;100285.53;4990984;28;20033;-65
2022/12/29 11:32:57;;;;;;;22.17;4.00;;;;;;;10.85;100.00;100287.72;5007790;28;20117;-66
2022/12/29 11:35:33;;;;;;;26.95;3.85;;;;;;;10.74;100.00;100291.69;5007607;28;20024;-63
2022/12/29 11:37:58;;;;;;;29.90;4.95;;;;;;;10.77;100.00;100295.13;5007654;28;20052;-62
2022/12/29 11:40:24;;;;;;;28.40;4.15;;;;;;;10.80;100.00;100290.56;4994622;28;20484;-60
2022/12/29 11:42:54;;;;;;;32.08;5.40;;;;;;;10.80;100.00;100285.28;5026970;28;20380;-65
2022/12/29 11:45:22;;;;;;;29.05;4.55;;;;;;;10.75;100.00;100295.19;5010009;28;20022;-62
2022/12/29 11:47:50;;;;;;;27.52;3.90;;;;;;;10.81;100.00;100315.97;5008358;28;20044;-64
2022/12/29 11:50:42;;;;;;;27.65;4.25;;;;;;;10.82;100.00;100301.91;4990106;28;20109;-63
2022/12/29 11:53:17;;;;;;;15.57;3.38;;;;;;;10.87;100.00;100314.88;4988357;28;20088;-64
2022/12/29 11:55:55;;;;;;;24.75;4.00;;;;;;;10.97;100.00;100299.50;4990015;28;20041;-64
2022/12/29 11:58:21;;;;;;;12.60;2.55;;;;;;;11.19;100.00;100317.84;5008121;28;20033;-62
2022/12/29 12:00:49;;;;;;;25.45;2.83;;;;;;;11.09;100.00;100317.41;4990982;28;20030;-61
2022/12/29 12:03:23;;;;;;;21.37;3.27;;;;;;;11.02;100.00;100317.75;5007698;28;20540;-63